sensor_id;sensor_type;location;lat;lon;timestamp;pressure;altitude;pressure_sealevel;temperature;humidity
75188;BME280;63762;51.334;22.108;2023-12-20T00:01:40;101058.15;;;7.55;70.40
75188;BME280;63762;51.334;22.108;2023-12-20T00:11:47;101057.09;;;7.43;71.10
75188;BME280;63762;51.334;22.108;2023-12-20T00:21:54;101059.76;;;7.29;72.57
75188;BME280;63762;51.334;22.108;2023-12-20T00:32:01;101040.88;;;7.03;73.85
75188;BME280;63762;51.334;22.108;2023-12-20T00:42:08;101031.41;;;6.97;74.43
75188;BME280;63762;51.334;22.108;2023-12-20T00:52:16;101033.88;;;6.86;75.13
75188;BME280;63762;51.334;22.108;2023-12-20T01:02:23;101010.25;;;6.78;75.42
75188;BME280;63762;51.334;22.108;2023-12-20T01:12:30;100999.23;;;6.69;76.11
75188;BME280;63762;51.334;22.108;2023-12-20T01:22:37;100991.66;;;6.61;77.00
75188;BME280;63762;51.334;22.108;2023-12-20T01:32:44;100964.45;;;6.55;77.72
75188;BME280;63762;51.334;22.108;2023-12-20T01:43:01;100967.40;;;6.50;78.05
75188;BME280;63762;51.334;22.108;2023-12-20T01:53:04;100947.09;;;6.32;79.43
75188;BME280;63762;51.334;22.108;2023-12-20T02:03:07;100937.01;;;6.37;79.42
75188;BME280;63762;51.334;22.108;2023-12-20T02:13:13;100930.70;;;6.38;79.84
75188;BME280;63762;51.334;22.108;2023-12-20T02:23:20;100903.68;;;6.29;80.07
75188;BME280;63762;51.334;22.108;2023-12-20T02:33:27;100894.52;;;6.33;80.44
75188;BME280;63762;51.334;22.108;2023-12-20T02:43:34;100880.38;;;6.31;80.75
75188;BME280;63762;51.334;22.108;2023-12-20T02:53:41;100877.44;;;6.35;81.19
75188;BME280;63762;51.334;22.108;2023-12-20T03:03:48;100871.59;;;6.15;82.60
75188;BME280;63762;51.334;22.108;2023-12-20T03:13:56;100867.15;;;6.00;84.70
75188;BME280;63762;51.334;22.108;2023-12-20T03:24:03;100845.18;;;5.79;86.30
75188;BME280;63762;51.334;22.108;2023-12-20T03:34:10;100846.84;;;5.82;86.96
75188;BME280;63762;51.334;22.108;2023-12-20T03:44:17;100846.84;;;5.82;87.44
75188;BME280;63762;51.334;22.108;2023-12-20T03:54:24;100862.25;;;5.77;88.13
75188;BME280;63762;51.334;22.108;2023-12-20T04:04:31;100866.39;;;5.67;89.07
75188;BME280;63762;51.334;22.108;2023-12-20T04:14:39;100865.09;;;5.74;88.99
75188;BME280;63762;51.334;22.108;2023-12-20T04:24:45;100870.02;;;5.81;88.88
75188;BME280;63762;51.334;22.108;2023-12-20T04:34:52;100868.80;;;5.87;88.54
75188;BME280;63762;51.334;22.108;2023-12-20T04:45:00;100852.91;;;5.99;88.13
75188;BME280;63762;51.334;22.108;2023-12-20T04:55:07;100858.59;;;6.09;87.57
75188;BME280;63762;51.334;22.108;2023-12-20T05:05:14;100867.17;;;6.14;87.56
75188;BME280;63762;51.334;22.108;2023-12-20T05:15:21;100849.63;;;6.10;87.63
75188;BME280;63762;51.334;22.108;2023-12-20T05:25:28;100837.23;;;6.09;87.97
75188;BME280;63762;51.334;22.108;2023-12-20T05:35:35;100832.87;;;5.92;88.71
75188;BME280;63762;51.334;22.108;2023-12-20T05:45:42;100834.49;;;5.95;88.97
75188;BME280;63762;51.334;22.108;2023-12-20T05:55:49;100838.30;;;5.91;89.32
75188;BME280;63762;51.334;22.108;2023-12-20T06:05:57;100834.46;;;6.10;88.58
75188;BME280;63762;51.334;22.108;2023-12-20T06:16:06;100828.25;;;6.10;88.39
75188;BME280;63762;51.334;22.108;2023-12-20T06:26:11;100826.72;;;6.06;88.18
75188;BME280;63762;51.334;22.108;2023-12-20T06:36:18;100833.47;;;5.97;88.52
75188;BME280;63762;51.334;22.108;2023-12-20T06:46:25;100834.30;;;5.98;88.39
75188;BME280;63762;51.334;22.108;2023-12-20T06:56:32;100832.96;;;5.91;88.83
75188;BME280;63762;51.334;22.108;2023-12-20T07:06:39;100841.50;;;5.82;89.44
75188;BME280;63762;51.334;22.108;2023-12-20T07:16:47;100837.82;;;5.84;88.42
75188;BME280;63762;51.334;22.108;2023-12-20T07:26:54;100834.41;;;5.81;88.70
75188;BME280;63762;51.334;22.108;2023-12-20T07:37:01;100834.51;;;5.79;89.44
75188;BME280;63762;51.334;22.108;2023-12-20T07:47:08;100839.70;;;5.82;88.18
75188;BME280;63762;51.334;22.108;2023-12-20T07:57:15;100829.43;;;5.75;88.68
75188;BME280;63762;51.334;22.108;2023-12-20T08:07:22;100836.94;;;5.84;88.42
75188;BME280;63762;51.334;22.108;2023-12-20T08:20:37;100827.71;;;5.89;89.05
75188;BME280;63762;51.334;22.108;2023-12-20T08:30:44;100830.29;;;5.91;89.25
75188;BME280;63762;51.334;22.108;2023-12-20T08:40:51;100840.20;;;5.89;88.01
75188;BME280;63762;51.334;22.108;2023-12-20T08:50:58;100832.66;;;5.81;87.92
75188;BME280;63762;51.334;22.108;2023-12-20T09:01:06;100826.94;;;5.72;88.52
75188;BME280;63762;51.334;22.108;2023-12-20T09:11:13;100806.63;;;5.69;88.53
75188;BME280;63762;51.334;22.108;2023-12-20T09:21:20;100795.96;;;5.69;87.09
75188;BME280;63762;51.334;22.108;2023-12-20T09:31:27;100790.66;;;5.54;87.98
75188;BME280;63762;51.334;22.108;2023-12-20T09:41:37;100775.32;;;5.57;85.61
75188;BME280;63762;51.334;22.108;2023-12-20T09:51:43;100762.59;;;5.47;87.98
75188;BME280;63762;51.334;22.108;2023-12-20T10:01:49;100766.75;;;5.37;89.12
75188;BME280;63762;51.334;22.108;2023-12-20T10:11:55;100763.15;;;5.38;89.26
75188;BME280;63762;51.334;22.108;2023-12-20T10:22:04;100757.64;;;5.41;88.16
75188;BME280;63762;51.334;22.108;2023-12-20T10:32:26;100745.76;;;5.31;85.74
75188;BME280;63762;51.334;22.108;2023-12-20T10:42:24;100743.82;;;5.19;87.47
75188;BME280;63762;51.334;22.108;2023-12-20T10:52:27;100738.48;;;5.19;88.22
75188;BME280;63762;51.334;22.108;2023-12-20T11:02:32;100726.16;;;5.16;88.04
75188;BME280;63762;51.334;22.108;2023-12-20T11:22:54;100696.74;;;5.18;87.94
75188;BME280;63762;51.334;22.108;2023-12-20T11:32:56;100712.73;;;5.18;87.88
75188;BME280;63762;51.334;22.108;2023-12-20T11:43:00;100718.24;;;5.15;88.07
75188;BME280;63762;51.334;22.108;2023-12-20T11:53:07;100698.83;;;5.13;88.79
75188;BME280;63762;51.334;22.108;2023-12-20T12:03:14;100691.70;;;4.98;88.07
75188;BME280;63762;51.334;22.108;2023-12-20T12:13:21;100689.13;;;4.96;88.23
75188;BME280;63762;51.334;22.108;2023-12-20T12:23:29;100681.38;;;4.92;88.33
75188;BME280;63762;51.334;22.108;2023-12-20T12:33:35;100678.31;;;4.84;88.43
75188;BME280;63762;51.334;22.108;2023-12-20T12:43:43;100660.70;;;4.65;87.92
75188;BME280;63762;51.334;22.108;2023-12-20T12:53:50;100660.52;;;4.68;88.13
75188;BME280;63762;51.334;22.108;2023-12-20T13:03:57;100661.39;;;4.69;88.12
75188;BME280;63762;51.334;22.108;2023-12-20T13:14:04;100661.20;;;4.56;87.31
75188;BME280;63762;51.334;22.108;2023-12-20T13:24:11;100665.95;;;4.51;88.58
75188;BME280;63762;51.334;22.108;2023-12-20T13:34:18;100655.96;;;4.55;89.12
75188;BME280;63762;51.334;22.108;2023-12-20T13:44:25;100668.68;;;4.65;88.00
75188;BME280;63762;51.334;22.108;2023-12-20T13:54:32;100658.91;;;4.50;88.19
75188;BME280;63762;51.334;22.108;2023-12-20T14:04:40;100660.00;;;4.46;89.07
75188;BME280;63762;51.334;22.108;2023-12-20T14:14:47;100664.99;;;4.52;88.53
75188;BME280;63762;51.334;22.108;2023-12-20T14:24:54;100649.34;;;4.46;88.79
75188;BME280;63762;51.334;22.108;2023-12-20T14:35:01;100646.09;;;4.41;89.39
75188;BME280;63762;51.334;22.108;2023-12-20T14:45:09;100660.79;;;4.48;89.48
75188;BME280;63762;51.334;22.108;2023-12-20T14:55:15;100678.05;;;4.57;89.12
75188;BME280;63762;51.334;22.108;2023-12-20T15:05:22;100684.42;;;4.54;89.48
75188;BME280;63762;51.334;22.108;2023-12-20T15:15:29;100666.91;;;4.50;89.55
75188;BME280;63762;51.334;22.108;2023-12-20T15:25:37;100676.77;;;4.48;89.63
75188;BME280;63762;51.334;22.108;2023-12-20T15:35:44;100695.08;;;4.54;89.08
75188;BME280;63762;51.334;22.108;2023-12-20T15:45:51;100685.96;;;4.43;89.26
75188;BME280;63762;51.334;22.108;2023-12-20T15:55:58;100672.90;;;4.54;88.47
75188;BME280;63762;51.334;22.108;2023-12-20T16:06:05;100669.81;;;4.61;88.64
75188;BME280;63762;51.334;22.108;2023-12-20T16:16:12;100677.72;;;4.63;88.30
75188;BME280;63762;51.334;22.108;2023-12-20T16:26:20;100673.26;;;4.63;88.07
75188;BME280;63762;51.334;22.108;2023-12-20T16:46:38;100671.34;;;4.65;87.54
75188;BME280;63762;51.334;22.108;2023-12-20T16:56:41;100671.11;;;4.54;87.18
75188;BME280;63762;51.334;22.108;2023-12-20T17:06:49;100683.55;;;4.69;85.75
75188;BME280;63762;51.334;22.108;2023-12-20T17:16:55;100677.19;;;4.56;86.53
75188;BME280;63762;51.334;22.108;2023-12-20T17:27:03;100674.11;;;4.48;86.63
75188;BME280;63762;51.334;22.108;2023-12-20T17:37:09;100650.75;;;4.53;85.72
75188;BME280;63762;51.334;22.108;2023-12-20T17:47:16;100657.96;;;4.36;86.66
75188;BME280;63762;51.334;22.108;2023-12-20T17:57:24;100641.53;;;4.43;86.39
75188;BME280;63762;51.334;22.108;2023-12-20T18:07:31;100625.63;;;4.42;86.21
75188;BME280;63762;51.334;22.108;2023-12-20T18:17:38;100622.47;;;4.35;84.66
75188;BME280;63762;51.334;22.108;2023-12-20T18:27:45;100643.85;;;4.18;85.34
75188;BME280;63762;51.334;22.108;2023-12-20T18:37:52;100624.09;;;4.22;85.71
75188;BME280;63762;51.334;22.108;2023-12-20T18:47:59;100623.42;;;4.34;85.94
75188;BME280;63762;51.334;22.108;2023-12-20T18:58:06;100628.83;;;4.48;85.38
75188;BME280;63762;51.334;22.108;2023-12-20T19:08:14;100628.03;;;4.46;85.09
75188;BME280;63762;51.334;22.108;2023-12-20T19:18:21;100631.57;;;4.47;85.27
75188;BME280;63762;51.334;22.108;2023-12-20T19:28:29;100606.39;;;4.52;84.96
75188;BME280;63762;51.334;22.108;2023-12-20T19:38:35;100607.58;;;4.62;84.26
75188;BME280;63762;51.334;22.108;2023-12-20T19:48:42;100606.57;;;4.65;84.30
75188;BME280;63762;51.334;22.108;2023-12-20T19:58:49;100602.60;;;4.56;84.08
75188;BME280;63762;51.334;22.108;2023-12-20T20:08:57;100591.42;;;4.65;83.87
75188;BME280;63762;51.334;22.108;2023-12-20T20:19:03;100595.22;;;4.61;83.96
75188;BME280;63762;51.334;22.108;2023-12-20T20:29:11;100579.15;;;4.63;83.29
75188;BME280;63762;51.334;22.108;2023-12-20T20:39:18;100580.45;;;4.56;83.37
75188;BME280;63762;51.334;22.108;2023-12-20T20:49:25;100577.36;;;4.63;83.39
75188;BME280;63762;51.334;22.108;2023-12-20T20:59:32;100568.22;;;4.68;83.08
75188;BME280;63762;51.334;22.108;2023-12-20T21:09:39;100553.95;;;4.68;81.83
75188;BME280;63762;51.334;22.108;2023-12-20T21:19:46;100559.45;;;4.65;82.28
75188;BME280;63762;51.334;22.108;2023-12-20T21:29:54;100564.73;;;4.51;83.01
75188;BME280;63762;51.334;22.108;2023-12-20T21:40:01;100581.84;;;4.47;83.89
75188;BME280;63762;51.334;22.108;2023-12-20T21:50:08;100560.71;;;3.98;82.76
75188;BME280;63762;51.334;22.108;2023-12-20T22:00:15;100576.54;;;3.68;81.03
75188;BME280;63762;51.334;22.108;2023-12-20T22:10:22;100597.14;;;3.65;81.82
75188;BME280;63762;51.334;22.108;2023-12-20T22:20:29;100589.24;;;3.63;83.29
75188;BME280;63762;51.334;22.108;2023-12-20T22:30:37;100595.96;;;3.53;83.22
75188;BME280;63762;51.334;22.108;2023-12-20T22:40:43;100573.63;;;3.73;81.43
75188;BME280;63762;51.334;22.108;2023-12-20T22:50:50;100568.55;;;3.68;80.73
75188;BME280;63762;51.334;22.108;2023-12-20T23:00:58;100558.29;;;3.78;80.03
75188;BME280;63762;51.334;22.108;2023-12-20T23:11:05;100554.50;;;3.66;80.94
75188;BME280;63762;51.334;22.108;2023-12-20T23:21:14;100584.17;;;3.42;81.36
75188;BME280;63762;51.334;22.108;2023-12-20T23:31:23;100567.47;;;3.40;81.77
75188;BME280;63762;51.334;22.108;2023-12-20T23:41:26;100572.95;;;3.37;81.35
75188;BME280;63762;51.334;22.108;2023-12-20T23:51:33;100562.34;;;3.20;82.26
